Time;durP1;ratioP1;P1;durP2;ratioP2;P2;SDS_P1;SDS_P2;PMS_P1;PMS_P2;Temp;Humidity;BMP_temperature;BMP_pressure;BME280_temperature;BME280_humidity;BME280_pressure;Samples;Min_cycle;Max_cycle;Signal;HPM_P1;HPM_P2
2022/10/31 00:00:08;;;;;;;;;;;;;;;14.82;100.00;98389.91;5059621;28;19970;-66
2022/10/31 00:02:35;;;;;;;;;;;;;;;14.83;100.00;98386.91;5056828;28;19929;-65
2022/10/31 00:05:01;;;;;;;;;;;;;;;14.79;100.00;98388.53;5056107;28;19964;-66
2022/10/31 00:07:27;;;;;;;;;;;;;;;14.81;100.00;98389.09;5057079;28;19927;-64
2022/10/31 00:09:54;;;;;;;;;;;;;;;14.84;100.00;98395.78;5059312;27;19925;-65
2022/10/31 00:12:21;;;;;;;;;;;;;;;14.84;100.00;98391.22;5059079;28;19988;-65
2022/10/31 00:14:48;;;;;;;;;;;;;;;14.82;100.00;98393.41;5055729;28;20019;-65
2022/10/31 00:17:14;;;;;;;;;;;;;;;14.83;100.00;98388.78;5038320;28;20018;-66
2022/10/31 00:19:40;;;;;;;;;;;;;;;14.79;100.00;98388.53;5059351;28;19992;-65
2022/10/31 00:22:06;;;;;;;;;;;;;;;14.78;100.00;98389.66;5058606;28;19992;-65
2022/10/31 00:24:33;;;;;;;;;;;;;;;14.77;100.00;98389.91;5055665;28;19977;-65
2022/10/31 00:26:59;;;;;;;;;;;;;;;14.75;100.00;98387.50;5055767;28;19976;-65
2022/10/31 00:29:27;;;;;;;;;;;;;;;14.76;100.00;98389.09;5056427;28;20016;-65
2022/10/31 00:31:53;;;;;;;;;;;;;;;14.73;100.00;98392.34;5059666;28;19989;-65
2022/10/31 00:34:19;;;;;;;;;;;;;;;14.74;100.00;98396.66;5059004;28;19956;-66
2022/10/31 00:36:46;;;;;;;;;;;;;;;14.71;100.00;98388.34;5038057;28;19926;-66
2022/10/31 00:39:12;;;;;;;;;;;;;;;14.69;100.00;98387.81;5055964;28;19957;-65
2022/10/31 00:41:39;;;;;;;;;;;;;;;14.69;100.00;98394.00;5058547;28;19995;-65
2022/10/31 00:44:05;;;;;;;;;;;;;;;14.63;100.00;98388.94;5040956;28;20010;-65
2022/10/31 00:46:33;;;;;;;;;;;;;;;14.53;100.00;98395.97;5057116;28;19996;-65
2022/10/31 00:48:59;;;;;;;;;;;;;;;14.52;100.00;98393.53;5055570;28;19925;-65
2022/10/31 00:51:25;;;;;;;;;;;;;;;14.51;100.00;98386.56;5056513;28;19925;-65
2022/10/31 00:53:52;;;;;;;;;;;;;;;14.48;100.00;98384.44;5056968;28;19929;-65
2022/10/31 00:56:18;;;;;;;;;;;;;;;13.97;100.00;98394.53;5058988;28;20488;-65
2022/10/31 00:58:44;;;;;;;;;;;;;;;13.38;100.00;98394.34;5047765;28;19960;-66
2022/10/31 01:01:10;;;;;;;;;;;;;;;13.33;100.00;98399.72;5055291;28;19925;-65
2022/10/31 01:03:39;;;;;;;;;;;;;;;13.08;100.00;98399.69;5057807;28;19925;-66
2022/10/31 01:06:07;;;;;;;;;;;;;;;12.92;100.00;98404.22;5058759;28;19932;-66
2022/10/31 01:08:33;;;;;;;;;;;;;;;12.88;100.00;98403.94;5056433;28;19992;-65
2022/10/31 01:11:04;;;;;;;;;;;;;;;12.68;100.00;98406.59;5055027;28;19972;-65
2022/10/31 01:13:30;;;;;;;;;;;;;;;12.45;100.00;98407.03;5056614;28;19925;-67
2022/10/31 01:15:57;;;;;;;;;;;;;;;12.34;100.00;98410.75;5058445;28;19925;-65
2022/10/31 01:18:23;;;;;;;;;;;;;;;12.58;100.00;98395.84;5057591;28;19931;-65
2022/10/31 01:20:59;;;;;;;;;;;;;;;12.77;100.00;98399.63;5055087;28;19925;-65
2022/10/31 01:23:25;;;;;;;;;;;;;;;12.90;100.00;98398.31;5053956;28;19947;-65
2022/10/31 01:25:59;;;;;;;;;;;;;;;13.06;100.00;98399.94;5058436;28;19976;-65
2022/10/31 01:28:25;;;;;;;;;;;;;;;13.15;100.00;98402.94;5057052;28;19967;-66
2022/10/31 01:30:51;;;;;;;;;;;;;;;13.42;100.00;98400.78;5054740;28;19929;-64
2022/10/31 01:33:18;;;;;;;;;;;;;;;13.57;100.00;98406.16;5054976;28;19988;-65
2022/10/31 01:35:44;;;;;;;;;;;;;;;13.37;100.00;98400.78;5046693;28;19993;-64
2022/10/31 01:38:12;;;;;;;;;;;;;;;13.16;100.00;98410.72;5054844;28;19960;-65
2022/10/31 01:40:38;;;;;;;;;;;;;;;13.24;100.00;98401.34;5057458;28;19921;-64
2022/10/31 01:43:04;;;;;;;;;;;;;;;13.41;100.00;98388.44;5058357;28;19996;-64
2022/10/31 01:45:31;;;;;;;;;;;;;;;13.50;100.00;98401.06;5056435;28;19967;-65
2022/10/31 01:47:57;;;;;;;;;;;;;;;13.60;100.00;98404.78;5055418;28;19946;-65
2022/10/31 01:50:28;;;;;;;;;;;;;;;13.58;100.00;98401.59;5055373;28;19989;-65
2022/10/31 01:52:55;;;;;;;;;;;;;;;13.46;100.00;98388.47;5053176;28;19925;-66
2022/10/31 01:55:25;;;;;;;;;;;;;;;13.30;100.00;98393.03;5054992;28;20269;-65
2022/10/31 01:57:52;;;;;;;;;;;;;;;13.19;100.00;98395.94;5061911;28;19925;-66
2022/10/31 02:00:19;;;;;;;;;;;;;;;13.18;100.00;98399.72;5061233;28;19984;-65
2022/10/31 02:02:46;;;;;;;;;;;;;;;13.11;100.00;98396.50;5057947;28;19965;-65
2022/10/31 02:05:15;;;;;;;;;;;;;;;12.93;100.00;98398.59;5058076;28;19961;-65
2022/10/31 02:07:44;;;;;;;;;;;;;;;12.73;100.00;98403.91;5061142;28;19989;-65
2022/10/31 02:10:10;;;;;;;;;;;;;;;12.64;100.00;98405.50;5061283;28;19988;-65
2022/10/31 02:12:39;;;;;;;;;;;;;;;12.59;100.00;98405.50;5058631;28;19925;-65
2022/10/31 02:15:06;;;;;;;;;;;;;;;12.47;100.00;98399.56;5058073;28;19964;-65
2022/10/31 02:17:32;;;;;;;;;;;;;;;12.28;100.00;98406.44;5060188;28;19924;-64
2022/10/31 02:20:05;;;;;;;;;;;;;;;12.50;100.00;98407.06;5061157;28;20376;-65
2022/10/31 02:22:35;;;;;;;;;;;;;;;12.35;100.00;98412.34;5056984;28;19931;-66
2022/10/31 02:25:14;;;;;;;;;;;;;;;12.18;100.00;98407.19;5058192;28;19977;-64
2022/10/31 02:27:57;;;;;;;;;;;;;;;12.11;100.00;98416.53;5060906;28;19989;-64
2022/10/31 02:30:24;;;;;;;;;;;;;;;12.15;100.00;98406.91;5060117;28;19925;-65
2022/10/31 02:32:59;;;;;;;;;;;;;;;12.55;100.00;98407.06;5057678;28;19971;-66
2022/10/31 02:35:33;;;;;;;;;;;;;;;12.92;100.00;98412.25;5058256;28;19988;-65
2022/10/31 02:38:03;;;;;;;;;;;;;;;13.23;100.00;98405.09;5060999;28;19925;-65
2022/10/31 02:40:33;;;;;;;;;;;;;;;13.34;100.00;98404.00;5059262;28;19988;-65
2022/10/31 02:43:03;;;;;;;;;;;;;;;13.33;100.00;98394.38;5057347;28;19993;-65
2022/10/31 02:45:31;;;;;;;;;;;;;;;13.30;100.00;98398.38;5058523;28;19953;-64
2022/10/31 02:48:01;;;;;;;;;;;;;;;13.14;100.00;98398.63;5061455;27;19946;-65
2022/10/31 02:50:29;;;;;;;;;;;;;;;13.01;100.00;98410.66;5059848;28;19975;-65
2022/10/31 02:52:55;;;;;;;;;;;;;;;13.14;100.00;98415.53;5054813;28;20008;-65
2022/10/31 02:55:40;;;;;;;;;;;;;;;13.33;100.00;98407.78;5057537;28;20012;-65
2022/10/31 02:58:09;;;;;;;;;;;;;;;13.44;100.00;98410.19;5060694;28;20081;-65
2022/10/31 03:00:39;;;;;;;;;;;;;;;13.47;100.00;98408.84;5058367;28;19971;-65
2022/10/31 03:03:11;;;;;;;;;;;;;;;13.12;100.00;98412.31;5057269;28;19926;-66
2022/10/31 03:05:41;;;;;;;;;;;;;;;12.83;100.00;98420.03;5059525;28;19926;-65
2022/10/31 03:08:11;;;;;;;;;;;;;;;12.92;100.00;98420.31;5060284;28;19956;-64
2022/10/31 03:10:41;;;;;;;;;;;;;;;12.71;100.00;98418.66;5058258;27;20020;-65
2022/10/31 03:13:10;;;;;;;;;;;;;;;13.05;100.00;98408.25;5039303;28;19967;-65
2022/10/31 03:15:38;;;;;;;;;;;;;;;12.93;100.00;98406.66;5059366;28;19964;-65
2022/10/31 03:18:07;;;;;;;;;;;;;;;12.91;100.00;98408.78;5060548;28;19976;-65
2022/10/31 03:20:37;;;;;;;;;;;;;;;12.66;100.00;98408.69;5057972;28;19995;-64
2022/10/31 03:23:05;;;;;;;;;;;;;;;12.56;100.00;98405.22;5054122;28;20001;-65
2022/10/31 03:25:32;;;;;;;;;;;;;;;12.47;100.00;98412.97;5058224;28;20049;-65
2022/10/31 03:28:00;;;;;;;;;;;;;;;12.43;100.00;98423.38;5060399;28;19964;-65
2022/10/31 03:30:27;;;;;;;;;;;;;;;12.68;100.00;98425.34;5058512;28;19932;-65
2022/10/31 03:32:55;;;;;;;;;;;;;;;12.70;100.00;98423.19;5056439;28;19931;-65
2022/10/31 03:35:23;;;;;;;;;;;;;;;12.49;100.00;98428.75;5056509;28;20047;-65
2022/10/31 03:37:53;;;;;;;;;;;;;;;12.25;100.00;98433.75;5059691;28;19996;-65
2022/10/31 03:40:22;;;;;;;;;;;;;;;12.27;100.00;98424.38;5059652;28;20019;-65
2022/10/31 03:42:52;;;;;;;;;;;;;;;12.21;100.00;98438.00;5056182;28;19992;-65
2022/10/31 03:45:22;;;;;;;;;;;;;;;12.27;100.00;98439.63;5056047;28;19988;-65
2022/10/31 03:47:48;;;;;;;;;;;;;;;11.98;100.00;98441.88;5059619;28;19964;-65
2022/10/31 03:50:16;;;;;;;;;;;;;;;11.73;100.00;98442.53;5059738;28;19925;-65
2022/10/31 03:52:46;;;;;;;;;;;;;;;11.52;100.00;98442.59;5053608;28;19965;-65
2022/10/31 03:55:17;;;;;;;;;;;;;;;11.52;100.00;98450.63;5056163;28;19943;-64
2022/10/31 03:57:46;;;;;;;;;;;;;;;11.33;100.00;98442.19;5048139;28;19984;-65
2022/10/31 04:00:13;;;;;;;;;;;;;;;11.14;100.00;98446.31;5055898;28;19976;-65
2022/10/31 04:02:42;;;;;;;;;;;;;;;10.91;100.00;98457.28;5059147;28;19924;-65
2022/10/31 04:05:10;;;;;;;;;;;;;;;10.82;100.00;98455.06;5059238;28;20000;-65
2022/10/31 04:07:38;;;;;;;;;;;;;;;10.74;100.00;98455.50;5056994;28;19991;-66
2022/10/31 04:10:08;;;;;;;;;;;;;;;10.70;100.00;98462.44;5055706;28;19933;-65
2022/10/31 04:12:36;;;;;;;;;;;;;;;10.67;100.00;98452.25;5058007;28;19926;-65
2022/10/31 04:15:04;;;;;;;;;;;;;;;10.66;100.00;98455.97;5059300;28;20388;-65
2022/10/31 04:17:32;;;;;;;;;;;;;;;10.63;100.00;98461.81;5057657;28;19959;-65
2022/10/31 04:19:59;;;;;;;;;;;;;;;10.73;100.00;98455.78;5054923;28;19925;-66
2022/10/31 04:22:26;;;;;;;;;;;;;;;11.23;100.00;98463.50;5055708;28;19967;-65
2022/10/31 04:24:52;;;;;;;;;;;;;;;11.12;100.00;98445.75;5055760;28;19992;-65
2022/10/31 04:27:19;;;;;;;;;;;;;;;11.11;100.00;98449.50;5055823;28;19953;-64
2022/10/31 04:29:46;;;;;;;;;;;;;;;11.50;100.00;98445.53;5047466;28;19935;-65
2022/10/31 04:32:13;;;;;;;;;;;;;;;11.29;100.00;98438.41;5055723;28;19963;-64
2022/10/31 04:34:39;;;;;;;;;;;;;;;11.55;100.00;98447.44;5058188;28;19992;-65
2022/10/31 04:37:05;;;;;;;;;;;;;;;11.35;100.00;98434.72;5059636;28;19925;-65
2022/10/31 04:39:32;;;;;;;;;;;;;;;11.35;100.00;98440.09;5057147;28;19963;-66
2022/10/31 04:41:58;;;;;;;;;;;;;;;11.37;100.00;98433.41;5055604;28;19927;-64
2022/10/31 04:44:24;;;;;;;;;;;;;;;11.27;100.00;98438.66;5055079;28;19997;-64
2022/10/31 04:46:52;;;;;;;;;;;;;;;11.02;100.00;98441.09;5054409;28;19997;-64
2022/10/31 04:49:18;;;;;;;;;;;;;;;10.82;100.00;98441.72;5056653;28;19932;-65
2022/10/31 04:51:45;;;;;;;;;;;;;;;10.74;100.00;98441.34;5044689;28;19925;-65
2022/10/31 04:54:11;;;;;;;;;;;;;;;10.80;100.00;98443.81;5045035;28;19979;-64
2022/10/31 04:56:37;;;;;;;;;;;;;;;10.86;100.00;98441.22;5058087;28;19964;-64
2022/10/31 04:59:03;;;;;;;;;;;;;;;10.75;100.00;98438.44;5055762;28;19997;-66
2022/10/31 05:01:30;;;;;;;;;;;;;;;10.80;100.00;98440.34;5054366;28;19925;-65
2022/10/31 05:03:57;;;;;;;;;;;;;;;11.07;100.00;98445.69;5054787;28;19935;-65
2022/10/31 05:06:24;;;;;;;;;;;;;;;11.80;100.00;98440.44;5055343;28;20019;-65
2022/10/31 05:08:50;;;;;;;;;;;;;;;11.61;100.00;98433.03;5058360;28;19932;-65
2022/10/31 05:11:16;;;;;;;;;;;;;;;11.28;100.00;98434.13;5058401;28;19925;-65
2022/10/31 05:13:43;;;;;;;;;;;;;;;11.09;100.00;98444.38;5054848;28;19997;-66
2022/10/31 05:16:09;;;;;;;;;;;;;;;10.91;100.00;98439.41;5054693;28;20166;-65
2022/10/31 05:18:35;;;;;;;;;;;;;;;10.79;100.00;98434.22;5056732;28;20005;-65
2022/10/31 05:21:03;;;;;;;;;;;;;;;11.20;100.00;98442.63;5058056;28;20024;-65
2022/10/31 05:23:29;;;;;;;;;;;;;;;11.11;100.00;98439.59;5049798;28;19932;-65
2022/10/31 05:25:56;;;;;;;;;;;;;;;11.78;100.00;98437.22;5058696;28;19978;-66
2022/10/31 05:28:22;;;;;;;;;;;;;;;11.97;100.00;98431.44;5058296;28;20008;-64
2022/10/31 05:30:48;;;;;;;;;;;;;;;11.73;100.00;98429.16;5056914;28;19996;-65
2022/10/31 05:33:15;;;;;;;;;;;;;;;11.59;100.00;98430.63;5058109;28;19929;-65
2022/10/31 05:35:41;;;;;;;;;;;;;;;11.48;100.00;98428.94;5061175;28;19984;-66
2022/10/31 05:38:09;;;;;;;;;;;;;;;11.59;100.00;98438.66;5061278;28;19925;-66
2022/10/31 05:40:35;;;;;;;;;;;;;;;11.73;100.00;98433.69;5059191;28;19992;-66
2022/10/31 05:43:02;;;;;;;;;;;;;;;12.10;100.00;98434.47;5057977;28;19985;-65
2022/10/31 05:45:28;;;;;;;;;;;;;;;12.09;100.00;98440.91;5059305;28;19925;-65
2022/10/31 05:47:55;;;;;;;;;;;;;;;11.93;100.00;98430.34;5061566;28;19960;-65
2022/10/31 05:50:22;;;;;;;;;;;;;;;11.99;100.00;98432.00;5060796;28;19925;-65
2022/10/31 05:52:48;;;;;;;;;;;;;;;12.19;100.00;98438.25;5055564;28;19993;-65
2022/10/31 05:55:16;;;;;;;;;;;;;;;12.41;100.00;98438.09;5058071;28;20289;-65
2022/10/31 05:57:42;;;;;;;;;;;;;;;12.43;100.00;98436.78;5060812;28;19992;-66
2022/10/31 06:00:09;;;;;;;;;;;;;;;12.54;100.00;98434.13;5061148;28;19925;-64
2022/10/31 06:02:36;;;;;;;;;;;;;;;12.61;100.00;98442.72;5058676;28;20028;-64
2022/10/31 06:05:02;;;;;;;;;;;;;;;12.67;100.00;98439.81;5057511;28;19996;-65
2022/10/31 06:07:32;;;;;;;;;;;;;;;12.74;100.00;98443.03;5059249;28;19993;-66
2022/10/31 06:09:59;;;;;;;;;;;;;;;12.65;100.00;98441.94;5060813;28;19931;-65
2022/10/31 06:12:26;;;;;;;;;;;;;;;12.66;100.00;98446.22;5059853;28;19935;-65
2022/10/31 06:14:53;;;;;;;;;;;;;;;12.59;100.00;98443.00;5040111;28;19932;-65
2022/10/31 06:17:19;;;;;;;;;;;;;;;12.68;100.00;98445.97;5057409;28;19930;-66
2022/10/31 06:19:45;;;;;;;;;;;;;;;12.55;100.00;98452.63;5060914;28;19993;-65
2022/10/31 06:22:12;;;;;;;;;;;;;;;12.37;100.00;98459.25;5059211;28;19920;-65
2022/10/31 06:24:38;;;;;;;;;;;;;;;12.00;100.00;98455.84;5057158;28;19924;-65
2022/10/31 06:27:05;;;;;;;;;;;;;;;11.82;100.00;98445.56;5057232;28;19944;-65
2022/10/31 06:29:33;;;;;;;;;;;;;;;11.63;100.00;98458.50;5058602;28;20038;-66
2022/10/31 06:31:59;;;;;;;;;;;;;;;11.78;100.00;98457.81;5060609;28;19935;-65
2022/10/31 06:34:25;;;;;;;;;;;;;;;12.10;100.00;98455.88;5059542;28;20032;-65
2022/10/31 06:36:52;;;;;;;;;;;;;;;12.08;100.00;98452.66;5057616;28;19940;-65
2022/10/31 06:39:18;;;;;;;;;;;;;;;11.91;100.00;98458.16;5057113;28;19925;-66
2022/10/31 06:41:44;;;;;;;;;;;;;;;11.99;100.00;98456.09;5048225;28;19939;-65
2022/10/31 06:44:10;;;;;;;;;;;;;;;11.89;100.00;98457.63;5057310;28;19925;-66
2022/10/31 06:46:38;;;;;;;;;;;;;;;11.47;100.00;98458.63;5059635;28;20537;-66
2022/10/31 06:49:04;;;;;;;;;;;;;;;11.05;100.00;98463.88;5060820;28;19992;-65
2022/10/31 06:51:31;;;;;;;;;;;;;;;11.20;100.00;98475.47;5058958;28;20113;-65
2022/10/31 06:53:57;;;;;;;;;;;;;;;11.08;100.00;98477.50;5053443;28;19925;-65
2022/10/31 06:56:24;;;;;;;;;;;;;;;10.94;100.00;98470.97;5059309;28;19925;-65
2022/10/31 06:58:50;;;;;;;;;;;;;;;10.79;100.00;98470.81;5056773;28;20116;-65
2022/10/31 07:01:16;;;;;;;;;;;;;;;10.75;100.00;98475.84;5056840;28;19984;-66
2022/10/31 07:03:44;;;;;;;;;;;;;;;11.13;100.00;98479.44;5060368;28;19925;-65
2022/10/31 07:06:10;;;;;;;;;;;;;;;11.18;100.00;98482.16;5059895;28;19931;-65
2022/10/31 07:08:36;;;;;;;;;;;;;;;11.27;100.00;98475.28;5058457;28;19992;-65
2022/10/31 07:11:03;;;;;;;;;;;;;;;11.28;100.00;98472.38;5056416;28;19960;-66
2022/10/31 07:13:29;;;;;;;;;;;;;;;11.06;100.00;98486.84;5057543;28;20565;-65
2022/10/31 07:16:00;;;;;;;;;;;;;;;11.20;100.00;98480.06;5060547;27;19975;-64
2022/10/31 07:18:26;;;;;;;;;;;;;;;11.05;100.00;98482.56;5058662;28;20056;-65
2022/10/31 07:20:54;;;;;;;;;;;;;;;10.73;100.00;98488.63;5056886;28;20040;-65
2022/10/31 07:23:20;;;;;;;;;;;;;;;10.52;100.00;98489.44;5053836;28;19925;-65
2022/10/31 07:25:47;;;;;;;;;;;;;;;10.51;100.00;98484.34;5059642;28;19971;-65
2022/10/31 07:28:13;;;;;;;;;;;;;;;10.47;100.00;98491.22;5059577;28;19948;-65
2022/10/31 07:30:40;;;;;;;;;;;;;;;10.81;100.00;98485.50;5056629;28;19996;-64
2022/10/31 07:33:06;;;;;;;;;;;;;;;11.04;100.00;98486.28;5056035;28;20016;-65
2022/10/31 07:35:34;;;;;;;;;;;;;;;11.01;100.00;98484.13;5057587;28;19997;-65
2022/10/31 07:38:08;;;;;;;;;;;;;;;10.88;100.00;98482.66;5059645;28;19924;-65
2022/10/31 07:40:35;;;;;;;;;;;;;;;10.79;100.00;98484.97;5057064;28;19932;-65
2022/10/31 07:43:01;;;;;;;;;;;;;;;10.76;100.00;98480.13;5056018;28;19925;-65
2022/10/31 07:45:27;;;;;;;;;;;;;;;10.70;100.00;98483.78;5056948;28;19925;-64
2022/10/31 07:47:54;;;;;;;;;;;;;;;10.79;100.00;98479.63;5060040;27;20012;-65
2022/10/31 07:50:21;;;;;;;;;;;;;;;10.88;100.00;98482.66;5059183;28;19924;-65
2022/10/31 07:52:47;;;;;;;;;;;;;;;10.86;100.00;98478.63;5053021;28;20015;-65
2022/10/31 07:55:15;;;;;;;;;;;;;;;10.65;100.00;98481.03;5055324;28;19980;-65
2022/10/31 07:57:41;;;;;;;;;;;;;;;10.73;100.00;98482.50;5059207;28;19988;-65
2022/10/31 08:00:09;;;;;;;;;;;;;;;10.69;100.00;98486.69;5059265;28;19925;-65
2022/10/31 08:02:35;;;;;;;;;;;;;;;10.39;100.00;98483.66;5056764;28;19925;-65
2022/10/31 08:05:02;;;;;;;;;;;;;;;10.50;100.00;98477.38;5055603;28;20008;-65
2022/10/31 08:07:29;;;;;;;;;;;;;;;10.45;100.00;98480.81;5056923;28;19925;-65
2022/10/31 08:09:55;;;;;;;;;;;;;;;10.45;100.00;98472.81;5059143;28;19996;-65
2022/10/31 08:12:23;;;;;;;;;;;;;;;10.46;100.00;98478.97;5058505;28;20023;-65
2022/10/31 08:14:49;;;;;;;;;;;;;;;10.39;100.00;98479.13;5055638;28;19925;-65
2022/10/31 08:17:16;;;;;;;;;;;;;;;10.56;100.00;98477.19;5055366;28;20016;-66
2022/10/31 08:19:42;;;;;;;;;;;;;;;10.74;100.00;98476.88;5058323;28;19935;-65
2022/10/31 08:22:08;;;;;;;;;;;;;;;10.70;100.00;98467.78;5057875;28;19935;-66
2022/10/31 08:24:34;;;;;;;;;;;;;;;10.99;100.00;98468.31;5055557;28;19925;-65
2022/10/31 08:27:01;;;;;;;;;;;;;;;11.04;100.00;98462.25;5055414;28;19937;-64
2022/10/31 08:29:28;;;;;;;;;;;;;;;10.94;100.00;98460.28;5056432;28;19967;-65
2022/10/31 08:31:55;;;;;;;;;;;;;;;10.77;100.00;98457.69;5059242;28;19996;-64
2022/10/31 08:34:21;;;;;;;;;;;;;;;10.69;100.00;98458.13;5058452;28;19956;-64
2022/10/31 08:36:47;;;;;;;;;;;;;;;10.65;100.00;98453.53;5056126;28;19999;-66
2022/10/31 08:39:14;;;;;;;;;;;;;;;10.66;100.00;98453.28;5056055;28;19929;-65
2022/10/31 08:41:40;;;;;;;;;;;;;;;10.88;100.00;98444.44;5058036;28;20459;-65
2022/10/31 08:44:06;;;;;;;;;;;;;;;10.99;100.00;98446.13;5058657;28;19967;-65
2022/10/31 08:46:34;;;;;;;;;;;;;;;10.80;100.00;98443.81;5056893;28;19996;-65
2022/10/31 08:49:00;;;;;;;;;;;;;;;10.81;100.00;98440.09;5055213;28;19955;-65
2022/10/31 08:51:26;;;;;;;;;;;;;;;10.91;100.00;98442.06;5056064;28;19965;-65
2022/10/31 08:53:53;;;;;;;;;;;;;;;10.76;100.00;98434.72;5056295;28;19925;-64
2022/10/31 08:56:19;;;;;;;;;;;;;;;10.66;100.00;98445.28;5058649;28;19924;-65
2022/10/31 08:58:45;;;;;;;;;;;;;;;10.86;100.00;98443.88;5046828;28;19988;-65
2022/10/31 09:01:12;;;;;;;;;;;;;;;10.86;100.00;98441.22;5055614;28;19960;-65
2022/10/31 09:03:39;;;;;;;;;;;;;;;10.95;100.00;98437.03;5057215;28;20296;-65
2022/10/31 09:06:08;;;;;;;;;;;;;;;11.04;100.00;98436.31;5060813;28;19932;-65
2022/10/31 09:08:35;;;;;;;;;;;;;;;11.02;100.00;98437.63;5059800;28;19928;-64
2022/10/31 09:11:01;;;;;;;;;;;;;;;11.04;100.00;98440.88;5059219;28;19992;-65
2022/10/31 09:13:28;;;;;;;;;;;;;;;11.01;100.00;98438.69;5059409;28;19994;-65
2022/10/31 09:15:54;;;;;;;;;;;;;;;11.05;100.00;98440.59;5061685;28;19925;-66
2022/10/31 09:18:21;;;;;;;;;;;;;;;11.22;100.00;98429.78;5061982;28;19996;-65
2022/10/31 09:20:49;;;;;;;;;;;;;;;11.45;100.00;98434.00;5040619;28;19925;-65
2022/10/31 09:23:17;;;;;;;;;;;;;;;11.56;100.00;98430.34;5056402;28;19921;-65
2022/10/31 09:25:44;;;;;;;;;;;;;;;11.78;100.00;98431.06;5061639;28;19996;-64
2022/10/31 09:28:11;;;;;;;;;;;;;;;11.95;100.00;98429.03;5061913;28;19996;-66
2022/10/31 09:30:37;;;;;;;;;;;;;;;11.68;100.00;98423.75;5059214;28;19988;-65
2022/10/31 09:33:05;;;;;;;;;;;;;;;11.56;100.00;98425.00;5058024;28;20001;-65
2022/10/31 09:35:31;;;;;;;;;;;;;;;11.48;100.00;98428.94;5059275;28;19979;-65
2022/10/31 09:37:59;;;;;;;;;;;;;;;11.35;100.00;98427.53;5061328;28;19953;-65
2022/10/31 09:40:33;;;;;;;;;;;;;;;11.33;100.00;98423.47;5060451;28;20019;-65
2022/10/31 09:43:03;;;;;;;;;;;;;;;11.44;100.00;98422.50;5062883;28;19968;-65
2022/10/31 09:45:32;;;;;;;;;;;;;;;11.65;100.00;98418.09;5064427;28;19992;-64
2022/10/31 09:48:21;;;;;;;;;;;;;;;11.73;100.00;98421.13;5065406;28;19992;-65
2022/10/31 09:50:49;;;;;;;;;;;;;;;11.64;100.00;98421.81;5050371;28;19925;-65
2022/10/31 09:53:23;;;;;;;;;;;;;;;11.54;100.00;98419.91;5055350;28;19984;-65
2022/10/31 09:55:50;;;;;;;;;;;;;;;11.69;100.00;98416.53;5050292;28;19925;-65
2022/10/31 09:58:19;;;;;;;;;;;;;;;11.80;100.00;98421.72;5057914;28;19993;-65
2022/10/31 10:00:46;;;;;;;;;;;;;;;11.79;100.00;98422.00;5049436;28;19925;-65
2022/10/31 10:03:20;;;;;;;;;;;;;;;11.72;100.00;98413.38;5057890;28;19959;-65
2022/10/31 10:05:52;;;;;;;;;;;;;;;11.79;100.00;98425.44;5049684;28;19921;-65
2022/10/31 10:08:21;;;;;;;;;;;;;;;11.79;100.00;98419.31;5057641;28;19935;-65
2022/10/31 10:10:50;;;;;;;;;;;;;;;11.81;100.00;98422.53;5049535;28;20016;-65
2022/10/31 10:13:31;;;;;;;;;;;;;;;11.89;100.00;98412.13;5057206;28;19988;-65
2022/10/31 10:16:11;;;;;;;;;;;;;;;12.03;100.00;98409.81;5050542;28;19925;-64
2022/10/31 10:18:41;;;;;;;;;;;;;;;11.98;100.00;98403.59;5059184;28;19984;-64
2022/10/31 10:21:16;;;;;;;;;;;;;;;11.87;100.00;98400.88;5060818;28;20011;-65
2022/10/31 10:23:49;;;;;;;;;;;;;;;11.82;100.00;98398.16;5052167;28;20000;-65
2022/10/31 10:26:18;;;;;;;;;;;;;;;11.70;100.00;98389.53;5060660;28;19925;-65
2022/10/31 10:28:45;;;;;;;;;;;;;;;11.74;100.00;98401.34;5057473;28;19925;-65
2022/10/31 10:31:15;;;;;;;;;;;;;;;11.80;100.00;98400.31;5057279;28;19937;-65
2022/10/31 10:33:45;;;;;;;;;;;;;;;11.87;100.00;98395.53;5060046;28;19992;-66
2022/10/31 10:36:14;;;;;;;;;;;;;;;11.91;100.00;98395.81;5061020;28;19952;-65
2022/10/31 10:38:46;;;;;;;;;;;;;;;11.94;100.00;98399.84;5057635;28;19972;-66
2022/10/31 10:41:16;;;;;;;;;;;;;;;11.88;100.00;98391.78;5057255;28;19984;-66
2022/10/31 10:43:43;;;;;;;;;;;;;;;11.91;100.00;98383.22;5060727;28;19968;-66
2022/10/31 10:49:24;;;;;;;;;;;;;;;11.96;100.00;98381.66;5051259;28;19956;-65
2022/10/31 10:51:53;;;;;;;;;;;;;;;12.09;100.00;98376.66;5052453;28;20021;-65
2022/10/31 10:54:27;;;;;;;;;;;;;;;12.18;100.00;98376.94;5056748;28;19989;-66
2022/10/31 10:57:01;;;;;;;;;;;;;;;11.98;100.00;98374.97;5056897;28;19972;-66
2022/10/31 10:59:27;;;;;;;;;;;;;;;12.03;100.00;98371.53;5057657;28;19988;-65
2022/10/31 11:01:54;;;;;;;;;;;;;;;12.03;100.00;98376.88;5060094;28;19947;-65
2022/10/31 11:04:25;;;;;;;;;;;;;;;12.14;100.00;98375.84;5060263;27;19991;-65
2022/10/31 11:07:02;;;;;;;;;;;;;;;12.20;100.00;98364.91;5056833;28;20004;-66
2022/10/31 11:09:29;;;;;;;;;;;;;;;12.15;100.00;98356.84;5057575;28;19925;-65
2022/10/31 11:11:57;;;;;;;;;;;;;;;12.34;100.00;98362.53;5060017;28;19995;-65
2022/10/31 11:14:24;;;;;;;;;;;;;;;12.44;100.00;98351.84;5059795;28;20023;-65
2022/10/31 11:16:52;;;;;;;;;;;;;;;12.54;100.00;98346.50;5057572;28;19981;-64
2022/10/31 11:19:20;;;;;;;;;;;;;;;12.52;100.00;98345.97;5053845;28;19988;-65
2022/10/31 11:21:47;;;;;;;;;;;;;;;12.55;100.00;98342.78;5049710;28;19925;-64
2022/10/31 11:24:15;;;;;;;;;;;;;;;12.68;100.00;98342.28;5056448;28;19976;-66
2022/10/31 11:26:42;;;;;;;;;;;;;;;12.78;100.00;98334.22;5057504;28;19976;-66
2022/10/31 11:29:13;;;;;;;;;;;;;;;12.88;100.00;98334.25;5056506;28;19956;-66
2022/10/31 11:31:42;;;;;;;;;;;;;;;12.94;100.00;98329.69;5058678;28;21472;-66
2022/10/31 11:34:15;;;;;;;;;;;;;;;12.85;100.00;98321.38;5059960;28;19996;-65
2022/10/31 11:36:43;;;;;;;;;;;;;;;12.89;100.00;98316.28;5056780;28;19975;-66
2022/10/31 11:39:16;;;;;;;;;;;;;;;12.88;100.00;98314.66;5056489;28;19991;-65
2022/10/31 11:41:42;;;;;;;;;;;;;;;12.70;100.00;98307.16;5059478;28;20007;-64
2022/10/31 11:44:13;;;;;;;;;;;;;;;12.80;100.00;98307.16;5059926;28;19935;-65
2022/10/31 11:46:42;;;;;;;;;;;;;;;12.68;100.00;98304.75;5057150;28;20561;-64
2022/10/31 11:49:14;;;;;;;;;;;;;;;12.88;100.00;98304.75;5056381;28;19925;-65
2022/10/31 11:51:40;;;;;;;;;;;;;;;12.91;100.00;98296.19;5059085;28;20020;-65
2022/10/31 11:54:16;;;;;;;;;;;;;;;13.00;100.00;98299.94;5057771;28;19992;-65
2022/10/31 11:56:43;;;;;;;;;;;;;;;13.18;100.00;98297.81;5056389;28;19928;-66
2022/10/31 11:59:21;;;;;;;;;;;;;;;13.35;100.00;98290.25;5056455;28;19932;-65
2022/10/31 12:01:50;;;;;;;;;;;;;;;13.43;100.00;98289.72;5048533;28;19988;-65
2022/10/31 12:04:17;;;;;;;;;;;;;;;13.36;100.00;98284.66;5056097;28;20007;-65
2022/10/31 12:06:45;;;;;;;;;;;;;;;13.33;100.00;98289.75;5059058;28;19929;-65
2022/10/31 12:09:24;;;;;;;;;;;;;;;13.33;100.00;98285.19;5041725;28;19985;-64
2022/10/31 12:11:57;;;;;;;;;;;;;;;13.35;100.00;98276.84;5048192;28;19925;-65
2022/10/31 12:14:31;;;;;;;;;;;;;;;13.28;100.00;98271.75;5056196;28;19955;-65
2022/10/31 12:17:03;;;;;;;;;;;;;;;13.32;100.00;98274.72;5059470;28;20047;-64
2022/10/31 12:19:34;;;;;;;;;;;;;;;13.29;100.00;98265.34;5057859;28;19929;-66
2022/10/31 12:22:05;;;;;;;;;;;;;;;13.35;100.00;98266.13;5055839;28;19925;-64
2022/10/31 12:24:39;;;;;;;;;;;;;;;13.39;100.00;98267.19;5055347;28;19925;-65
2022/10/31 12:27:11;;;;;;;;;;;;;;;13.39;100.00;98259.97;5041595;28;19925;-65
2022/10/31 12:29:45;;;;;;;;;;;;;;;13.43;100.00;98249.50;5057168;28;19980;-64
2022/10/31 12:32:28;;;;;;;;;;;;;;;13.45;100.00;98253.50;5055684;28;19977;-65
2022/10/31 12:35:05;;;;;;;;;;;;;;;13.37;100.00;98253.22;5048723;28;19932;-65
2022/10/31 12:37:41;;;;;;;;;;;;;;;13.36;100.00;98238.22;5057442;28;19932;-65
2022/10/31 12:40:20;;;;;;;;;;;;;;;13.34;100.00;98243.03;5058431;28;19981;-64
2022/10/31 12:42:55;;;;;;;;;;;;;;;13.38;100.00;98236.88;5047709;28;19989;-65